Terminal Aerodrome Forecast
Issued by NWS

Home | Current Version | Previous Version | Text Only | Print | Product List | Glossary On
Versions: 1 2 3 4 5 6 7 8 9 10 11 12 13 14 15 16 17 18 19
000
FTUS43 KPAH 192300
TAFCGI
TAF
KCGI 192320Z 2000/2024 04003KT P6SM SCT035 OVC060
     FM200500 05004KT P6SM OVC015
     FM200900 07002KT 4SM BR OVC008
     FM201300 08002KT 5SM BR SCT004 BKN012
     FM201600 09003KT P6SM BKN015
     FM202000 11003KT P6SM BKN050=

USA.gov is the U.S. government's official web portal to all federal, state and local government web resources and services.